Verbank, New York
Current Conditions -  °F | °C
As of 7:53 AM on Tuesday 21 Oct 2014 (Local Time) from KPOU Reporting Station
Overcast Overcast  
Wind Chill: 49°   Ceiling: 7500
Heat Index: 49°   Visibility: 10mi
Dew Point: 47°   Wind: 0mph
Humidity: 93%   Direction: NA
Pressure: 29.9"   Gusts: NA
Location:  41.72°N, 73.71°W
Report Text: KPOU 211153Z AUTO 00000KT 10SM OVC075 09/08 A2990 RMK AO2 SLP120 P0001 60001 70001 T00940083 10100 20089 58005 TSNO
Loading
Personal Weather Stations






























Interactive Weather Map
Tropical Storm Tracking
New forecast layout! Learn more

10-Day Weather Forecast

Advertisements
Track Severe Weather on mobile